Terminal Aerodrome Forecast
Issued by NWS

Home | Current Version | Previous Version | Graphics & Text | Print | Product List | Glossary Off
Versions: 1 2 3 4 5 6 7 8 9 10 11 12 13 14 15 16 17 18 19 20 21 22 23 24 25 26

000
FTUS43 KDDC 271733
TAFGCK
TAF
KGCK 271733Z 2718/2818 16012G23KT P6SM BKN100
     FM272100 14016G24KT P6SM VCTS BKN090CB
     FM280400 07010KT P6SM VCTS BKN015CB WS020/24025KT
     FM280600 01009KT P6SM SCT015
     FM281200 28010KT P6SM FEW100=

USA.gov is the U.S. government's official web portal to all federal, state and local government web resources and services.